MHRO

Juan Manuel Galvez International Airport

Roatan Island, Honduras
TAF MHRO 191045Z 1912/2012 09012KT 9999 FEW022 BKN080 TX28/1919Z TN24/2012Z BECMG 1911/1913 SCT024 BECMG 2001/2003 SCT022TCU BKN080 BECMG 2005/2007 35008KT 8000 VCSH
Issued Valid From Valid To
Jan-19 @ 10:45 UTC
(7 hours ago)
Jan-19 @ 12:00 UTC
(6 hours ago)
Jan-20 @ 12:00 UTC
(in 18 hours)
Jan-19 @ 12:00 to Jan-20 @ 12:00
TAF MHRO 191045Z 1912/2012 09012KT 9999 FEW022 BKN080 TX28/1919Z TN24/2012Z
Wind Visibility Clouds
90° at 12 knots 10,000+ meters
  • Few at 2,200' AGL
  • Broken at 8,000' AGL
Becoming Jan-19 @ 11:00 to Jan-20 @ 01:00
BECMG 1911/1913 SCT024
Wind Visibility Clouds
90° at 12 knots 10,000+ meters
  • Scattered at 2,400' AGL
Becoming Jan-20 @ 01:00 to Jan-20 @ 05:00
BECMG 2001/2003 SCT022TCU BKN080
Wind Visibility Clouds
90° at 12 knots 10,000+ meters
  • Scattered at 2,200' AGL
  • Broken at 8,000' AGL
Becoming Jan-20 @ 05:00 to Jan-20 @ 12:00
BECMG 2005/2007 35008KT 8000 VCSH
Wind Visibility Clouds
350° at 8 knots 7,998 meters
  • Scattered at 2,200' AGL
  • Broken at 8,000' AGL
TAF MHRO 191045Z 1912/2012 09012KT 9999 FEW022 BKN080 TX28/1919Z TN24/2012Z BECMG 1911/1913 SCT024 BECMG 2001/2003 SCT022TCU BKN080 BECMG 2005/2007 35008KT 8000 VCSH
Issued Jan-19 @ 10:45 UTC
(7 hours ago)
Valid From Jan-19 @ 12:00 UTC
(6 hours ago)
Valid To Jan-20 @ 12:00 UTC
(in 18 hours)
Jan-19 @ 12:00 - Jan-20 @ 12:00
Wind Visibility
90° at 12 knots 10,000+ meters
Clouds
  • Few at 2,200' AGL
  • Broken at 8,000' AGL
Becoming Jan-19 @ 11:00 - Jan-20 @ 01:00
Wind Visibility
90° at 12 knots 10,000+ meters
Clouds
  • Scattered at 2,400' AGL
Becoming Jan-20 @ 01:00 - Jan-20 @ 05:00
Wind Visibility
90° at 12 knots 10,000+ meters
Clouds
  • Scattered at 2,200' AGL
  • Broken at 8,000' AGL
Becoming Jan-20 @ 05:00 - Jan-20 @ 12:00
Wind Visibility
350° at 8 knots 7,998 meters
Clouds
  • Scattered at 2,200' AGL
  • Broken at 8,000' AGL